Terminal Aerodrome Forecast
Issued by NWS

Home | Current Version | Previous Version | Text Only | Print | Product List | Glossary On
Versions: 1 2 3 4 5 6 7 8 9 10 11 12 13 14 15 16 17 18 19 20 21 22 23 24 25 26 27 28 29 30 31 32 33 34 35 36 37 38 39 40 41 42 43 44 45 46 47 48
000
FTAK31 PANC 210002 AAA
TAFAIL
TAF AMD
PAIL 210002Z 2100/2124 22004KT 6SM -SN BR SCT025 OVC035
      TEMPO 2100/2103 3SM -SN BR SCT008 BKN020
     FM210600 VRB05KT P6SM -SHSN SCT025 BKN040=

USA.gov is the U.S. government's official web portal to all federal, state and local government web resources and services.